sensor_id;sensor_type;location;lat;lon;timestamp;P1;durP1;ratioP1;P2;durP2;ratioP2
21899;SDS011;11114;50.658;12.704;2023-09-07T00:00:18;10.55;;;9.77;;
21899;SDS011;11114;50.658;12.704;2023-09-07T00:03:05;10.40;;;9.65;;
21899;SDS011;11114;50.658;12.704;2023-09-07T00:05:53;10.48;;;9.77;;
21899;SDS011;11114;50.658;12.704;2023-09-07T00:08:40;10.50;;;9.73;;
21899;SDS011;11114;50.658;12.704;2023-09-07T00:11:26;10.45;;;9.55;;
21899;SDS011;11114;50.658;12.704;2023-09-07T00:14:13;10.30;;;9.40;;
21899;SDS011;11114;50.658;12.704;2023-09-07T00:16:59;10.73;;;9.90;;
21899;SDS011;11114;50.658;12.704;2023-09-07T00:19:46;10.73;;;9.93;;
21899;SDS011;11114;50.658;12.704;2023-09-07T00:22:37;10.30;;;9.60;;
21899;SDS011;11114;50.658;12.704;2023-09-07T00:25:24;11.10;;;10.30;;
21899;SDS011;11114;50.658;12.704;2023-09-07T00:28:11;11.15;;;10.30;;
21899;SDS011;11114;50.658;12.704;2023-09-07T00:30:58;10.90;;;10.10;;
21899;SDS011;11114;50.658;12.704;2023-09-07T00:33:44;10.40;;;9.60;;
21899;SDS011;11114;50.658;12.704;2023-09-07T00:36:31;10.40;;;9.68;;
21899;SDS011;11114;50.658;12.704;2023-09-07T00:39:16;10.52;;;9.82;;
21899;SDS011;11114;50.658;12.704;2023-09-07T00:42:04;10.50;;;9.80;;
21899;SDS011;11114;50.658;12.704;2023-09-07T00:44:51;10.65;;;9.85;;
21899;SDS011;11114;50.658;12.704;2023-09-07T00:47:37;10.95;;;10.15;;
21899;SDS011;11114;50.658;12.704;2023-09-07T00:50:24;11.00;;;10.20;;
21899;SDS011;11114;50.658;12.704;2023-09-07T00:53:11;10.75;;;10.05;;
21899;SDS011;11114;50.658;12.704;2023-09-07T00:55:58;11.52;;;10.52;;
21899;SDS011;11114;50.658;12.704;2023-09-07T00:58:45;11.45;;;10.55;;
21899;SDS011;11114;50.658;12.704;2023-09-07T01:01:31;11.43;;;10.50;;
21899;SDS011;11114;50.658;12.704;2023-09-07T01:04:19;11.02;;;10.23;;
21899;SDS011;11114;50.658;12.704;2023-09-07T01:07:08;11.32;;;10.50;;
21899;SDS011;11114;50.658;12.704;2023-09-07T01:10:04;10.45;;;9.75;;
21899;SDS011;11114;50.658;12.704;2023-09-07T01:12:52;10.98;;;10.10;;
21899;SDS011;11114;50.658;12.704;2023-09-07T01:15:38;11.05;;;10.23;;
21899;SDS011;11114;50.658;12.704;2023-09-07T01:18:25;10.95;;;10.15;;
21899;SDS011;11114;50.658;12.704;2023-09-07T01:21:12;11.10;;;10.07;;
21899;SDS011;11114;50.658;12.704;2023-09-07T01:23:59;11.05;;;10.25;;
21899;SDS011;11114;50.658;12.704;2023-09-07T01:26:46;10.95;;;10.05;;
21899;SDS011;11114;50.658;12.704;2023-09-07T01:29:35;10.23;;;9.52;;
21899;SDS011;11114;50.658;12.704;2023-09-07T01:32:24;10.65;;;9.80;;
21899;SDS011;11114;50.658;12.704;2023-09-07T01:35:12;10.82;;;9.82;;
21899;SDS011;11114;50.658;12.704;2023-09-07T01:38:01;11.30;;;10.30;;
21899;SDS011;11114;50.658;12.704;2023-09-07T01:40:47;10.55;;;9.80;;
21899;SDS011;11114;50.658;12.704;2023-09-07T01:43:35;11.13;;;10.32;;
21899;SDS011;11114;50.658;12.704;2023-09-07T01:46:22;11.15;;;10.23;;
21899;SDS011;11114;50.658;12.704;2023-09-07T01:49:08;10.82;;;10.02;;
21899;SDS011;11114;50.658;12.704;2023-09-07T01:52:03;10.75;;;9.95;;
21899;SDS011;11114;50.658;12.704;2023-09-07T01:54:50;10.43;;;9.60;;
21899;SDS011;11114;50.658;12.704;2023-09-07T01:57:37;11.27;;;10.25;;
21899;SDS011;11114;50.658;12.704;2023-09-07T02:00:24;11.23;;;10.32;;
21899;SDS011;11114;50.658;12.704;2023-09-07T02:03:11;10.77;;;9.98;;
21899;SDS011;11114;50.658;12.704;2023-09-07T02:05:58;11.25;;;10.35;;
21899;SDS011;11114;50.658;12.704;2023-09-07T02:08:44;10.82;;;10.02;;
21899;SDS011;11114;50.658;12.704;2023-09-07T02:11:32;11.07;;;10.32;;
21899;SDS011;11114;50.658;12.704;2023-09-07T02:14:17;10.65;;;9.95;;
21899;SDS011;11114;50.658;12.704;2023-09-07T02:17:04;10.80;;;10.00;;
21899;SDS011;11114;50.658;12.704;2023-09-07T02:19:51;11.05;;;10.18;;
21899;SDS011;11114;50.658;12.704;2023-09-07T02:22:38;10.95;;;10.15;;
21899;SDS011;11114;50.658;12.704;2023-09-07T02:25:24;11.77;;;10.88;;
21899;SDS011;11114;50.658;12.704;2023-09-07T02:28:12;10.95;;;10.00;;
21899;SDS011;11114;50.658;12.704;2023-09-07T02:31:05;11.00;;;10.20;;
21899;SDS011;11114;50.658;12.704;2023-09-07T02:33:53;10.60;;;9.73;;
21899;SDS011;11114;50.658;12.704;2023-09-07T02:36:40;10.68;;;9.77;;
21899;SDS011;11114;50.658;12.704;2023-09-07T02:39:26;11.05;;;10.20;;
21899;SDS011;11114;50.658;12.704;2023-09-07T02:42:13;11.25;;;10.35;;
21899;SDS011;11114;50.658;12.704;2023-09-07T02:45:01;10.80;;;10.00;;
21899;SDS011;11114;50.658;12.704;2023-09-07T02:47:49;10.95;;;10.05;;
21899;SDS011;11114;50.658;12.704;2023-09-07T02:50:37;10.90;;;10.10;;
21899;SDS011;11114;50.658;12.704;2023-09-07T02:53:24;10.65;;;9.95;;
21899;SDS011;11114;50.658;12.704;2023-09-07T02:56:10;10.60;;;9.80;;
21899;SDS011;11114;50.658;12.704;2023-09-07T02:58:58;11.00;;;10.07;;
21899;SDS011;11114;50.658;12.704;2023-09-07T03:01:45;10.80;;;9.95;;
21899;SDS011;11114;50.658;12.704;2023-09-07T03:04:31;11.45;;;10.55;;
21899;SDS011;11114;50.658;12.704;2023-09-07T03:07:18;11.20;;;10.40;;
21899;SDS011;11114;50.658;12.704;2023-09-07T03:10:06;10.63;;;9.90;;
21899;SDS011;11114;50.658;12.704;2023-09-07T03:12:53;11.00;;;10.23;;
21899;SDS011;11114;50.658;12.704;2023-09-07T03:15:40;11.13;;;10.30;;
21899;SDS011;11114;50.658;12.704;2023-09-07T03:18:31;11.25;;;10.38;;
21899;SDS011;11114;50.658;12.704;2023-09-07T03:21:18;11.52;;;10.55;;
21899;SDS011;11114;50.658;12.704;2023-09-07T03:24:04;11.05;;;10.25;;
21899;SDS011;11114;50.658;12.704;2023-09-07T03:26:52;11.52;;;10.73;;
21899;SDS011;11114;50.658;12.704;2023-09-07T03:29:38;12.38;;;11.25;;
21899;SDS011;11114;50.658;12.704;2023-09-07T03:32:25;11.20;;;10.40;;
21899;SDS011;11114;50.658;12.704;2023-09-07T03:35:15;10.93;;;10.18;;
21899;SDS011;11114;50.658;12.704;2023-09-07T03:38:02;11.77;;;10.88;;
21899;SDS011;11114;50.658;12.704;2023-09-07T03:40:50;11.05;;;10.20;;
21899;SDS011;11114;50.658;12.704;2023-09-07T03:43:38;11.23;;;10.43;;
21899;SDS011;11114;50.658;12.704;2023-09-07T03:46:28;11.40;;;10.40;;
21899;SDS011;11114;50.658;12.704;2023-09-07T03:49:15;11.20;;;10.40;;
21899;SDS011;11114;50.658;12.704;2023-09-07T03:52:03;11.80;;;10.90;;
21899;SDS011;11114;50.658;12.704;2023-09-07T03:54:50;12.20;;;11.20;;
21899;SDS011;11114;50.658;12.704;2023-09-07T03:57:38;12.18;;;11.05;;
21899;SDS011;11114;50.658;12.704;2023-09-07T04:00:25;11.80;;;10.70;;
21899;SDS011;11114;50.658;12.704;2023-09-07T04:03:11;11.77;;;10.90;;
21899;SDS011;11114;50.658;12.704;2023-09-07T04:05:58;12.52;;;11.38;;
21899;SDS011;11114;50.658;12.704;2023-09-07T04:08:46;12.18;;;11.27;;
21899;SDS011;11114;50.658;12.704;2023-09-07T04:11:32;12.30;;;11.48;;
21899;SDS011;11114;50.658;12.704;2023-09-07T04:14:19;11.80;;;10.90;;
21899;SDS011;11114;50.658;12.704;2023-09-07T04:17:05;12.48;;;11.57;;
21899;SDS011;11114;50.658;12.704;2023-09-07T04:19:52;12.20;;;11.20;;
21899;SDS011;11114;50.658;12.704;2023-09-07T04:22:39;12.15;;;11.07;;
21899;SDS011;11114;50.658;12.704;2023-09-07T04:25:27;11.10;;;10.20;;
21899;SDS011;11114;50.658;12.704;2023-09-07T04:28:14;11.60;;;10.60;;
21899;SDS011;11114;50.658;12.704;2023-09-07T04:31:01;11.82;;;10.93;;
21899;SDS011;11114;50.658;12.704;2023-09-07T04:33:48;11.65;;;10.75;;
21899;SDS011;11114;50.658;12.704;2023-09-07T04:36:35;12.07;;;11.05;;
21899;SDS011;11114;50.658;12.704;2023-09-07T04:39:22;12.38;;;11.48;;
21899;SDS011;11114;50.658;12.704;2023-09-07T04:42:08;12.48;;;11.48;;
21899;SDS011;11114;50.658;12.704;2023-09-07T04:44:55;11.88;;;10.82;;
21899;SDS011;11114;50.658;12.704;2023-09-07T04:47:42;12.20;;;10.98;;
21899;SDS011;11114;50.658;12.704;2023-09-07T04:50:28;12.85;;;11.63;;
21899;SDS011;11114;50.658;12.704;2023-09-07T04:53:15;12.63;;;11.73;;
21899;SDS011;11114;50.658;12.704;2023-09-07T04:56:02;12.85;;;11.85;;
21899;SDS011;11114;50.658;12.704;2023-09-07T04:58:51;12.10;;;11.10;;
21899;SDS011;11114;50.658;12.704;2023-09-07T05:01:37;12.73;;;11.57;;
21899;SDS011;11114;50.658;12.704;2023-09-07T05:04:24;12.88;;;11.88;;
21899;SDS011;11114;50.658;12.704;2023-09-07T05:07:10;13.20;;;12.20;;
21899;SDS011;11114;50.658;12.704;2023-09-07T05:09:58;13.23;;;12.23;;
21899;SDS011;11114;50.658;12.704;2023-09-07T05:12:45;12.82;;;11.85;;
21899;SDS011;11114;50.658;12.704;2023-09-07T05:15:33;12.95;;;11.95;;
21899;SDS011;11114;50.658;12.704;2023-09-07T05:18:19;13.27;;;12.35;;
21899;SDS011;11114;50.658;12.704;2023-09-07T05:21:13;13.18;;;12.13;;
21899;SDS011;11114;50.658;12.704;2023-09-07T05:24:01;12.98;;;11.98;;
21899;SDS011;11114;50.658;12.704;2023-09-07T05:26:47;13.50;;;12.38;;
21899;SDS011;11114;50.658;12.704;2023-09-07T05:29:34;14.40;;;13.30;;
21899;SDS011;11114;50.658;12.704;2023-09-07T05:32:21;12.93;;;12.02;;
21899;SDS011;11114;50.658;12.704;2023-09-07T05:35:07;13.40;;;12.40;;
21899;SDS011;11114;50.658;12.704;2023-09-07T05:37:57;14.20;;;13.20;;
21899;SDS011;11114;50.658;12.704;2023-09-07T05:40:44;14.45;;;13.38;;
21899;SDS011;11114;50.658;12.704;2023-09-07T05:43:31;15.50;;;14.20;;
21899;SDS011;11114;50.658;12.704;2023-09-07T05:46:18;26.88;;;13.63;;
21899;SDS011;11114;50.658;12.704;2023-09-07T05:49:04;14.93;;;13.50;;
21899;SDS011;11114;50.658;12.704;2023-09-07T05:51:51;14.10;;;12.70;;
21899;SDS011;11114;50.658;12.704;2023-09-07T05:54:38;13.88;;;12.88;;
21899;SDS011;11114;50.658;12.704;2023-09-07T05:57:24;21.00;;;14.15;;
21899;SDS011;11114;50.658;12.704;2023-09-07T06:00:10;14.90;;;13.75;;
21899;SDS011;11114;50.658;12.704;2023-09-07T06:03:01;14.82;;;13.38;;
21899;SDS011;11114;50.658;12.704;2023-09-07T06:05:49;14.65;;;13.55;;
21899;SDS011;11114;50.658;12.704;2023-09-07T06:08:36;14.27;;;13.18;;
21899;SDS011;11114;50.658;12.704;2023-09-07T06:11:22;15.32;;;14.18;;
21899;SDS011;11114;50.658;12.704;2023-09-07T06:14:09;14.80;;;13.70;;
21899;SDS011;11114;50.658;12.704;2023-09-07T06:16:56;14.63;;;13.57;;
21899;SDS011;11114;50.658;12.704;2023-09-07T06:19:43;14.20;;;13.27;;
21899;SDS011;11114;50.658;12.704;2023-09-07T06:22:31;18.77;;;17.17;;
21899;SDS011;11114;50.658;12.704;2023-09-07T06:25:17;20.13;;;18.13;;
21899;SDS011;11114;50.658;12.704;2023-09-07T06:28:05;19.73;;;17.98;;
21899;SDS011;11114;50.658;12.704;2023-09-07T06:30:51;17.08;;;15.57;;
21899;SDS011;11114;50.658;12.704;2023-09-07T06:33:39;15.98;;;14.32;;
21899;SDS011;11114;50.658;12.704;2023-09-07T06:36:25;13.48;;;12.50;;
21899;SDS011;11114;50.658;12.704;2023-09-07T06:39:33;14.27;;;13.18;;
21899;SDS011;11114;50.658;12.704;2023-09-07T06:42:20;15.50;;;14.30;;
21899;SDS011;11114;50.658;12.704;2023-09-07T06:45:15;18.50;;;16.70;;
21899;SDS011;11114;50.658;12.704;2023-09-07T06:48:02;19.15;;;17.45;;
21899;SDS011;11114;50.658;12.704;2023-09-07T06:50:50;19.80;;;17.90;;
21899;SDS011;11114;50.658;12.704;2023-09-07T06:53:37;17.38;;;15.98;;
21899;SDS011;11114;50.658;12.704;2023-09-07T06:56:42;15.73;;;14.32;;
21899;SDS011;11114;50.658;12.704;2023-09-07T06:59:29;14.98;;;13.88;;
21899;SDS011;11114;50.658;12.704;2023-09-07T07:02:16;15.13;;;14.02;;
21899;SDS011;11114;50.658;12.704;2023-09-07T07:05:02;15.30;;;14.18;;
21899;SDS011;11114;50.658;12.704;2023-09-07T07:07:50;14.88;;;13.68;;
21899;SDS011;11114;50.658;12.704;2023-09-07T07:10:36;15.70;;;14.30;;
21899;SDS011;11114;50.658;12.704;2023-09-07T07:13:23;13.63;;;12.52;;
21899;SDS011;11114;50.658;12.704;2023-09-07T07:16:09;14.70;;;13.60;;
21899;SDS011;11114;50.658;12.704;2023-09-07T07:18:56;12.57;;;11.60;;
21899;SDS011;11114;50.658;12.704;2023-09-07T07:21:43;13.48;;;12.32;;
21899;SDS011;11114;50.658;12.704;2023-09-07T07:24:31;11.30;;;10.50;;
21899;SDS011;11114;50.658;12.704;2023-09-07T07:27:18;11.48;;;10.57;;
21899;SDS011;11114;50.658;12.704;2023-09-07T07:30:04;11.60;;;10.73;;
21899;SDS011;11114;50.658;12.704;2023-09-07T07:32:51;11.80;;;10.90;;
21899;SDS011;11114;50.658;12.704;2023-09-07T07:35:38;11.65;;;10.85;;
21899;SDS011;11114;50.658;12.704;2023-09-07T07:38:26;13.07;;;12.07;;
21899;SDS011;11114;50.658;12.704;2023-09-07T07:41:13;13.18;;;12.18;;
21899;SDS011;11114;50.658;12.704;2023-09-07T07:44:00;13.55;;;12.52;;
21899;SDS011;11114;50.658;12.704;2023-09-07T07:46:47;13.23;;;12.20;;
21899;SDS011;11114;50.658;12.704;2023-09-07T07:49:35;13.77;;;12.60;;
21899;SDS011;11114;50.658;12.704;2023-09-07T07:52:24;13.63;;;12.63;;
21899;SDS011;11114;50.658;12.704;2023-09-07T07:55:12;12.93;;;11.93;;
21899;SDS011;11114;50.658;12.704;2023-09-07T07:58:00;12.48;;;11.57;;
21899;SDS011;11114;50.658;12.704;2023-09-07T08:00:47;12.75;;;11.85;;
21899;SDS011;11114;50.658;12.704;2023-09-07T08:03:40;12.25;;;11.35;;
21899;SDS011;11114;50.658;12.704;2023-09-07T08:06:27;12.95;;;12.05;;
21899;SDS011;11114;50.658;12.704;2023-09-07T08:09:14;13.43;;;12.43;;
21899;SDS011;11114;50.658;12.704;2023-09-07T08:12:01;13.48;;;12.48;;
21899;SDS011;11114;50.658;12.704;2023-09-07T08:14:52;13.88;;;12.65;;
21899;SDS011;11114;50.658;12.704;2023-09-07T08:17:38;13.30;;;12.30;;
21899;SDS011;11114;50.658;12.704;2023-09-07T08:20:26;13.98;;;12.88;;
21899;SDS011;11114;50.658;12.704;2023-09-07T08:23:13;13.00;;;12.10;;
21899;SDS011;11114;50.658;12.704;2023-09-07T08:26:00;13.13;;;12.23;;
21899;SDS011;11114;50.658;12.704;2023-09-07T08:28:47;13.52;;;12.43;;
21899;SDS011;11114;50.658;12.704;2023-09-07T08:31:34;13.30;;;12.10;;
21899;SDS011;11114;50.658;12.704;2023-09-07T08:34:22;13.27;;;12.38;;
21899;SDS011;11114;50.658;12.704;2023-09-07T08:37:09;14.00;;;12.90;;
21899;SDS011;11114;50.658;12.704;2023-09-07T08:39:56;12.90;;;12.00;;
21899;SDS011;11114;50.658;12.704;2023-09-07T08:42:43;12.73;;;11.82;;
21899;SDS011;11114;50.658;12.704;2023-09-07T08:45:30;12.25;;;11.43;;
21899;SDS011;11114;50.658;12.704;2023-09-07T08:48:23;12.50;;;11.60;;
21899;SDS011;11114;50.658;12.704;2023-09-07T08:51:11;13.07;;;12.18;;
21899;SDS011;11114;50.658;12.704;2023-09-07T08:54:00;12.85;;;11.95;;
21899;SDS011;11114;50.658;12.704;2023-09-07T08:56:46;12.05;;;11.15;;
21899;SDS011;11114;50.658;12.704;2023-09-07T08:59:33;12.35;;;11.45;;
21899;SDS011;11114;50.658;12.704;2023-09-07T09:02:19;12.30;;;11.40;;
21899;SDS011;11114;50.658;12.704;2023-09-07T09:05:08;13.35;;;12.30;;
21899;SDS011;11114;50.658;12.704;2023-09-07T09:08:00;12.60;;;11.50;;
21899;SDS011;11114;50.658;12.704;2023-09-07T09:10:59;13.20;;;12.07;;
21899;SDS011;11114;50.658;12.704;2023-09-07T09:13:52;12.90;;;11.88;;
21899;SDS011;11114;50.658;12.704;2023-09-07T09:16:39;13.32;;;12.32;;
21899;SDS011;11114;50.658;12.704;2023-09-07T09:19:34;12.85;;;11.85;;
21899;SDS011;11114;50.658;12.704;2023-09-07T09:22:21;13.15;;;12.15;;
21899;SDS011;11114;50.658;12.704;2023-09-07T09:25:10;13.35;;;12.05;;
21899;SDS011;11114;50.658;12.704;2023-09-07T09:27:56;12.80;;;11.70;;
21899;SDS011;11114;50.658;12.704;2023-09-07T09:30:43;12.60;;;11.70;;
21899;SDS011;11114;50.658;12.704;2023-09-07T09:33:30;12.73;;;11.73;;
21899;SDS011;11114;50.658;12.704;2023-09-07T09:36:17;12.75;;;11.65;;
21899;SDS011;11114;50.658;12.704;2023-09-07T09:39:04;12.52;;;11.52;;
21899;SDS011;11114;50.658;12.704;2023-09-07T09:41:52;12.70;;;11.70;;
21899;SDS011;11114;50.658;12.704;2023-09-07T09:44:39;12.35;;;11.45;;
21899;SDS011;11114;50.658;12.704;2023-09-07T09:47:26;12.88;;;11.88;;
21899;SDS011;11114;50.658;12.704;2023-09-07T09:50:13;13.85;;;12.45;;
21899;SDS011;11114;50.658;12.704;2023-09-07T09:53:00;13.63;;;12.52;;
21899;SDS011;11114;50.658;12.704;2023-09-07T09:55:51;12.95;;;11.95;;
21899;SDS011;11114;50.658;12.704;2023-09-07T09:58:38;12.93;;;11.82;;
21899;SDS011;11114;50.658;12.704;2023-09-07T10:01:25;12.38;;;11.23;;
21899;SDS011;11114;50.658;12.704;2023-09-07T10:04:13;12.68;;;11.68;;
21899;SDS011;11114;50.658;12.704;2023-09-07T10:07:01;12.75;;;11.85;;
21899;SDS011;11114;50.658;12.704;2023-09-07T10:09:55;12.00;;;11.10;;
21899;SDS011;11114;50.658;12.704;2023-09-07T10:12:42;12.27;;;11.13;;
21899;SDS011;11114;50.658;12.704;2023-09-07T10:15:29;12.52;;;11.52;;
21899;SDS011;11114;50.658;12.704;2023-09-07T10:18:17;13.43;;;11.85;;
21899;SDS011;11114;50.658;12.704;2023-09-07T10:21:05;12.30;;;11.45;;
21899;SDS011;11114;50.658;12.704;2023-09-07T10:23:52;12.65;;;11.55;;
21899;SDS011;11114;50.658;12.704;2023-09-07T10:26:40;12.20;;;11.30;;
21899;SDS011;11114;50.658;12.704;2023-09-07T10:29:26;12.70;;;11.55;;
21899;SDS011;11114;50.658;12.704;2023-09-07T10:32:14;11.90;;;11.10;;
21899;SDS011;11114;50.658;12.704;2023-09-07T10:35:12;11.85;;;10.95;;
21899;SDS011;11114;50.658;12.704;2023-09-07T10:37:59;11.25;;;10.45;;
21899;SDS011;11114;50.658;12.704;2023-09-07T10:40:47;11.40;;;10.32;;
21899;SDS011;11114;50.658;12.704;2023-09-07T10:43:34;11.68;;;10.75;;
21899;SDS011;11114;50.658;12.704;2023-09-07T10:46:21;11.10;;;10.20;;
21899;SDS011;11114;50.658;12.704;2023-09-07T10:49:11;11.25;;;10.35;;
21899;SDS011;11114;50.658;12.704;2023-09-07T10:51:58;10.10;;;9.40;;
21899;SDS011;11114;50.658;12.704;2023-09-07T10:54:45;10.10;;;9.38;;
21899;SDS011;11114;50.658;12.704;2023-09-07T10:57:46;10.70;;;9.60;;
21899;SDS011;11114;50.658;12.704;2023-09-07T11:00:34;10.10;;;9.30;;
21899;SDS011;11114;50.658;12.704;2023-09-07T11:03:20;10.07;;;9.38;;
21899;SDS011;11114;50.658;12.704;2023-09-07T11:06:16;9.60;;;8.90;;
21899;SDS011;11114;50.658;12.704;2023-09-07T11:09:12;9.57;;;8.88;;
21899;SDS011;11114;50.658;12.704;2023-09-07T11:12:05;9.25;;;8.55;;
21899;SDS011;11114;50.658;12.704;2023-09-07T11:14:53;9.50;;;8.70;;
21899;SDS011;11114;50.658;12.704;2023-09-07T11:17:39;10.13;;;9.10;;
21899;SDS011;11114;50.658;12.704;2023-09-07T11:20:26;10.77;;;9.40;;
21899;SDS011;11114;50.658;12.704;2023-09-07T11:23:13;9.90;;;9.18;;
21899;SDS011;11114;50.658;12.704;2023-09-07T11:25:59;10.63;;;9.73;;
21899;SDS011;11114;50.658;12.704;2023-09-07T11:28:46;10.80;;;9.85;;
21899;SDS011;11114;50.658;12.704;2023-09-07T11:31:33;10.18;;;9.38;;
21899;SDS011;11114;50.658;12.704;2023-09-07T11:34:20;11.02;;;9.55;;
21899;SDS011;11114;50.658;12.704;2023-09-07T11:37:07;10.52;;;9.52;;
21899;SDS011;11114;50.658;12.704;2023-09-07T11:39:53;10.10;;;9.40;;
21899;SDS011;11114;50.658;12.704;2023-09-07T11:42:40;10.30;;;9.50;;
21899;SDS011;11114;50.658;12.704;2023-09-07T11:45:27;10.40;;;9.60;;
21899;SDS011;11114;50.658;12.704;2023-09-07T11:48:14;10.27;;;9.48;;
21899;SDS011;11114;50.658;12.704;2023-09-07T11:51:01;10.50;;;9.70;;
21899;SDS011;11114;50.658;12.704;2023-09-07T11:53:48;10.60;;;9.80;;
21899;SDS011;11114;50.658;12.704;2023-09-07T11:56:36;10.00;;;9.20;;
21899;SDS011;11114;50.658;12.704;2023-09-07T11:59:26;9.88;;;9.07;;
21899;SDS011;11114;50.658;12.704;2023-09-07T12:02:29;9.63;;;8.82;;
21899;SDS011;11114;50.658;12.704;2023-09-07T12:05:15;12.13;;;9.35;;
21899;SDS011;11114;50.658;12.704;2023-09-07T12:08:04;10.20;;;9.20;;
21899;SDS011;11114;50.658;12.704;2023-09-07T12:10:51;10.10;;;9.13;;
21899;SDS011;11114;50.658;12.704;2023-09-07T12:13:38;10.20;;;9.30;;
21899;SDS011;11114;50.658;12.704;2023-09-07T12:16:27;9.95;;;9.20;;
21899;SDS011;11114;50.658;12.704;2023-09-07T12:19:14;10.38;;;9.57;;
21899;SDS011;11114;50.658;12.704;2023-09-07T12:22:01;10.35;;;9.45;;
21899;SDS011;11114;50.658;12.704;2023-09-07T12:24:49;10.30;;;9.60;;
21899;SDS011;11114;50.658;12.704;2023-09-07T12:27:55;10.20;;;9.23;;
21899;SDS011;11114;50.658;12.704;2023-09-07T12:30:42;10.13;;;9.32;;
21899;SDS011;11114;50.658;12.704;2023-09-07T12:33:30;11.15;;;10.10;;
21899;SDS011;11114;50.658;12.704;2023-09-07T12:36:19;9.98;;;9.25;;
21899;SDS011;11114;50.658;12.704;2023-09-07T12:39:08;10.20;;;9.30;;
21899;SDS011;11114;50.658;12.704;2023-09-07T12:41:58;10.75;;;9.85;;
21899;SDS011;11114;50.658;12.704;2023-09-07T12:44:44;9.60;;;8.70;;
21899;SDS011;11114;50.658;12.704;2023-09-07T12:47:30;9.57;;;8.80;;
21899;SDS011;11114;50.658;12.704;2023-09-07T12:50:16;9.63;;;8.77;;
21899;SDS011;11114;50.658;12.704;2023-09-07T12:53:03;10.38;;;9.48;;
21899;SDS011;11114;50.658;12.704;2023-09-07T12:55:50;10.20;;;9.30;;
21899;SDS011;11114;50.658;12.704;2023-09-07T12:58:38;11.85;;;9.48;;
21899;SDS011;11114;50.658;12.704;2023-09-07T13:01:28;10.05;;;9.32;;
21899;SDS011;11114;50.658;12.704;2023-09-07T13:04:15;10.45;;;9.50;;
21899;SDS011;11114;50.658;12.704;2023-09-07T13:07:01;9.73;;;9.02;;
21899;SDS011;11114;50.658;12.704;2023-09-07T13:09:48;10.07;;;9.27;;
21899;SDS011;11114;50.658;12.704;2023-09-07T13:12:35;10.00;;;9.05;;
21899;SDS011;11114;50.658;12.704;2023-09-07T13:15:21;9.43;;;8.73;;
21899;SDS011;11114;50.658;12.704;2023-09-07T13:18:08;9.80;;;9.10;;
21899;SDS011;11114;50.658;12.704;2023-09-07T13:20:56;9.95;;;9.15;;
21899;SDS011;11114;50.658;12.704;2023-09-07T13:23:45;10.57;;;9.63;;
21899;SDS011;11114;50.658;12.704;2023-09-07T13:26:32;10.20;;;9.40;;
21899;SDS011;11114;50.658;12.704;2023-09-07T13:29:19;10.70;;;9.80;;
21899;SDS011;11114;50.658;12.704;2023-09-07T13:32:05;10.48;;;9.23;;
21899;SDS011;11114;50.658;12.704;2023-09-07T13:34:51;10.25;;;9.40;;
21899;SDS011;11114;50.658;12.704;2023-09-07T13:37:38;10.23;;;9.43;;
21899;SDS011;11114;50.658;12.704;2023-09-07T13:40:25;10.48;;;9.52;;
21899;SDS011;11114;50.658;12.704;2023-09-07T13:46:01;10.43;;;9.45;;
21899;SDS011;11114;50.658;12.704;2023-09-07T13:48:50;10.17;;;9.27;;
21899;SDS011;11114;50.658;12.704;2023-09-07T13:51:39;10.10;;;9.23;;
21899;SDS011;11114;50.658;12.704;2023-09-07T13:54:26;9.88;;;9.07;;
21899;SDS011;11114;50.658;12.704;2023-09-07T13:57:16;9.73;;;8.93;;
21899;SDS011;11114;50.658;12.704;2023-09-07T14:00:03;9.82;;;8.90;;
21899;SDS011;11114;50.658;12.704;2023-09-07T14:02:53;9.75;;;9.07;;
21899;SDS011;11114;50.658;12.704;2023-09-07T14:05:40;9.85;;;9.05;;
21899;SDS011;11114;50.658;12.704;2023-09-07T14:08:27;9.43;;;8.73;;
21899;SDS011;11114;50.658;12.704;2023-09-07T14:11:16;9.90;;;9.10;;
21899;SDS011;11114;50.658;12.704;2023-09-07T14:14:03;9.77;;;8.98;;
21899;SDS011;11114;50.658;12.704;2023-09-07T14:16:54;9.52;;;8.63;;
21899;SDS011;11114;50.658;12.704;2023-09-07T14:19:43;10.98;;;8.70;;
21899;SDS011;11114;50.658;12.704;2023-09-07T14:22:32;9.23;;;8.40;;
21899;SDS011;11114;50.658;12.704;2023-09-07T14:25:18;8.80;;;8.07;;
21899;SDS011;11114;50.658;12.704;2023-09-07T14:28:08;9.05;;;8.35;;
21899;SDS011;11114;50.658;12.704;2023-09-07T14:30:54;8.90;;;8.20;;
21899;SDS011;11114;50.658;12.704;2023-09-07T14:33:40;9.23;;;8.35;;
21899;SDS011;11114;50.658;12.704;2023-09-07T14:36:28;9.05;;;8.15;;
21899;SDS011;11114;50.658;12.704;2023-09-07T14:39:14;8.88;;;7.97;;
21899;SDS011;11114;50.658;12.704;2023-09-07T14:42:02;9.07;;;8.18;;
21899;SDS011;11114;50.658;12.704;2023-09-07T14:44:49;8.95;;;8.25;;
21899;SDS011;11114;50.658;12.704;2023-09-07T14:47:35;8.90;;;8.20;;
21899;SDS011;11114;50.658;12.704;2023-09-07T14:50:22;8.88;;;8.00;;
21899;SDS011;11114;50.658;12.704;2023-09-07T14:53:08;9.60;;;8.73;;
21899;SDS011;11114;50.658;12.704;2023-09-07T14:55:54;9.50;;;8.80;;
21899;SDS011;11114;50.658;12.704;2023-09-07T14:58:40;9.48;;;8.60;;
21899;SDS011;11114;50.658;12.704;2023-09-07T15:01:49;9.73;;;8.82;;
21899;SDS011;11114;50.658;12.704;2023-09-07T15:04:52;9.90;;;8.90;;
21899;SDS011;11114;50.658;12.704;2023-09-07T15:07:39;10.20;;;9.40;;
21899;SDS011;11114;50.658;12.704;2023-09-07T15:10:25;9.43;;;8.48;;
21899;SDS011;11114;50.658;12.704;2023-09-07T15:13:12;9.85;;;8.95;;
21899;SDS011;11114;50.658;12.704;2023-09-07T15:15:58;9.32;;;8.52;;
21899;SDS011;11114;50.658;12.704;2023-09-07T15:18:45;9.43;;;8.73;;
21899;SDS011;11114;50.658;12.704;2023-09-07T15:21:31;10.57;;;9.65;;
21899;SDS011;11114;50.658;12.704;2023-09-07T15:24:18;10.05;;;9.07;;
21899;SDS011;11114;50.658;12.704;2023-09-07T15:27:11;10.18;;;9.40;;
21899;SDS011;11114;50.658;12.704;2023-09-07T15:29:58;10.25;;;9.55;;
21899;SDS011;11114;50.658;12.704;2023-09-07T15:32:44;10.65;;;9.68;;
21899;SDS011;11114;50.658;12.704;2023-09-07T15:35:31;10.20;;;9.38;;
21899;SDS011;11114;50.658;12.704;2023-09-07T15:38:17;10.52;;;9.55;;
21899;SDS011;11114;50.658;12.704;2023-09-07T15:41:05;11.10;;;10.20;;
21899;SDS011;11114;50.658;12.704;2023-09-07T15:43:55;10.82;;;10.02;;
21899;SDS011;11114;50.658;12.704;2023-09-07T15:46:41;10.18;;;9.40;;
21899;SDS011;11114;50.658;12.704;2023-09-07T15:49:28;10.27;;;9.48;;
21899;SDS011;11114;50.658;12.704;2023-09-07T15:52:17;10.43;;;9.65;;
21899;SDS011;11114;50.658;12.704;2023-09-07T15:55:05;10.93;;;10.07;;
21899;SDS011;11114;50.658;12.704;2023-09-07T15:57:53;10.77;;;9.98;;
21899;SDS011;11114;50.658;12.704;2023-09-07T16:00:40;10.02;;;9.23;;
21899;SDS011;11114;50.658;12.704;2023-09-07T16:03:26;11.15;;;10.05;;
21899;SDS011;11114;50.658;12.704;2023-09-07T16:06:14;10.10;;;9.20;;
21899;SDS011;11114;50.658;12.704;2023-09-07T16:08:59;9.85;;;9.05;;
21899;SDS011;11114;50.658;12.704;2023-09-07T16:11:47;9.65;;;8.65;;
21899;SDS011;11114;50.658;12.704;2023-09-07T16:14:34;9.73;;;8.93;;
21899;SDS011;11114;50.658;12.704;2023-09-07T16:17:20;9.15;;;8.45;;